createdAt,value
2018-12-21T00:02:25.149Z,43.10
2018-12-21T00:04:54.243Z,48.03
2018-12-21T00:07:23.302Z,42.57
2018-12-21T00:09:52.369Z,43.73
2018-12-21T00:12:21.448Z,51.70
2018-12-21T00:14:50.517Z,44.07
2018-12-21T00:17:19.588Z,45.00
2018-12-21T00:19:48.639Z,33.57
2018-12-21T00:22:17.727Z,41.07
2018-12-21T00:24:46.809Z,41.97
2018-12-21T00:27:15.904Z,41.23
2018-12-21T00:29:44.967Z,43.23
2018-12-21T00:32:19.562Z,44.13
2018-12-21T00:34:54.106Z,43.40
2018-12-21T00:37:28.586Z,46.27
2018-12-21T00:40:03.114Z,51.10
2018-12-21T00:42:35.333Z,51.23
2018-12-21T00:45:09.015Z,55.33
2018-12-21T00:47:38.098Z,48.93
2018-12-21T00:50:09.440Z,50.60
2018-12-21T00:52:38.514Z,43.57
2018-12-21T00:55:07.734Z,45.00
2018-12-21T00:57:36.783Z,49.00
2018-12-21T01:00:11.358Z,49.17
2018-12-21T01:02:40.430Z,51.53
2018-12-21T01:05:09.602Z,48.00
2018-12-21T01:07:38.673Z,50.07
2018-12-21T01:10:08.824Z,46.23
2018-12-21T01:12:37.973Z,47.67
2018-12-21T01:15:07.182Z,46.40
2018-12-21T01:17:36.336Z,45.83
2018-12-21T01:20:07.391Z,50.90
2018-12-21T01:22:36.493Z,50.23
2018-12-21T01:25:05.904Z,52.80
2018-12-21T01:27:35.020Z,53.80
2018-12-21T01:30:05.278Z,59.80
2018-12-21T01:32:34.465Z,42.17
2018-12-21T01:35:03.597Z,56.33
2018-12-21T01:37:32.669Z,50.97
2018-12-21T01:40:01.757Z,53.47
2018-12-21T01:42:30.800Z,53.93
2018-12-21T01:44:59.847Z,48.30
2018-12-21T01:47:28.909Z,52.93
2018-12-21T01:49:57.966Z,54.00
2018-12-21T01:52:26.994Z,60.37
2018-12-21T01:54:56.063Z,54.63
2018-12-21T01:57:25.139Z,62.43
2018-12-21T01:59:54.180Z,62.60
2018-12-21T02:02:23.272Z,59.60
2018-12-21T02:04:52.343Z,68.83
2018-12-21T02:07:21.423Z,57.23
2018-12-21T02:09:50.471Z,58.40
2018-12-21T02:12:19.535Z,60.00
2018-12-21T02:14:48.570Z,57.93
2018-12-21T02:17:17.647Z,55.23
2018-12-21T02:19:46.685Z,63.87
2018-12-21T02:22:15.760Z,62.77
2018-12-21T02:24:44.838Z,68.97
2018-12-21T02:27:13.874Z,65.47
2018-12-21T02:29:42.938Z,59.27
2018-12-21T02:32:11.979Z,59.23
2018-12-21T02:34:41.060Z,54.63
2018-12-21T02:37:10.567Z,54.50
2018-12-21T02:39:39.638Z,60.03
2018-12-21T02:42:08.683Z,57.60
2018-12-21T02:44:37.755Z,60.27
2018-12-21T02:47:06.795Z,61.30
2018-12-21T02:49:35.896Z,60.60
2018-12-21T02:52:05.726Z,54.47
2018-12-21T02:54:35.118Z,64.77
2018-12-21T02:57:04.167Z,56.00
2018-12-21T02:59:33.301Z,59.77
2018-12-21T03:02:02.335Z,58.77
2018-12-21T03:04:31.826Z,57.60
2018-12-21T03:07:00.970Z,61.53
2018-12-21T03:09:30.038Z,63.47
2018-12-21T03:11:59.165Z,59.10
2018-12-21T03:14:28.236Z,62.30
2018-12-21T03:16:57.281Z,53.63
2018-12-21T03:19:26.364Z,61.90
2018-12-21T03:21:55.513Z,58.43
2018-12-21T03:24:24.595Z,63.10
2018-12-21T03:26:53.743Z,59.77
2018-12-21T03:29:22.796Z,56.27
2018-12-21T03:31:51.862Z,58.07
2018-12-21T03:34:20.905Z,52.47
2018-12-21T03:36:50.073Z,63.00
2018-12-21T03:39:19.133Z,64.20
2018-12-21T03:41:48.182Z,58.43
2018-12-21T03:44:17.227Z,53.63
2018-12-21T03:46:46.312Z,57.97
2018-12-21T03:49:15.420Z,50.17
2018-12-21T03:51:44.459Z,53.30
2018-12-21T03:54:13.611Z,56.57
2018-12-21T03:56:42.658Z,59.07
2018-12-21T03:59:13.037Z,58.33
2018-12-21T04:01:42.108Z,57.10
2018-12-21T04:04:11.195Z,53.90
2018-12-21T04:06:40.238Z,58.10
2018-12-21T04:09:09.304Z,57.20
2018-12-21T04:11:38.350Z,63.77
2018-12-21T04:14:07.479Z,56.70
2018-12-21T04:16:36.604Z,56.13
2018-12-21T04:19:05.638Z,46.97
2018-12-21T04:21:34.715Z,63.93
2018-12-21T04:24:03.796Z,61.20
2018-12-21T04:26:32.867Z,60.47
2018-12-21T04:29:02.007Z,82.30
2018-12-21T04:31:31.048Z,84.60
2018-12-21T04:34:00.110Z,95.83
2018-12-21T04:36:29.178Z,59.70
2018-12-21T04:38:58.220Z,83.80
2018-12-21T04:41:27.287Z,69.10
2018-12-21T04:43:56.435Z,71.10
2018-12-21T04:46:25.475Z,71.93
2018-12-21T04:48:54.548Z,89.47
2018-12-21T04:51:23.619Z,84.60
2018-12-21T04:53:53.547Z,109.87
2018-12-21T04:56:22.609Z,64.73
2018-12-21T04:58:51.792Z,81.03
2018-12-21T05:01:20.845Z,109.37
2018-12-21T05:03:49.894Z,76.77
2018-12-21T05:06:18.942Z,60.10
2018-12-21T05:08:48.019Z,63.87
2018-12-21T05:11:17.097Z,63.60
2018-12-21T05:13:46.168Z,69.13
2018-12-21T05:16:15.230Z,59.93
2018-12-21T05:18:44.298Z,65.20
2018-12-21T05:21:13.382Z,71.17
2018-12-21T05:23:42.418Z,64.40
2018-12-21T05:26:11.457Z,53.93
2018-12-21T05:28:40.522Z,74.07
2018-12-21T05:31:09.591Z,62.93
2018-12-21T05:33:38.667Z,67.47
2018-12-21T05:36:07.704Z,55.40
2018-12-21T05:38:36.816Z,65.60
2018-12-21T05:41:05.875Z,64.90
2018-12-21T05:43:34.954Z,58.53
2018-12-21T05:46:03.992Z,71.73
2018-12-21T05:48:33.057Z,111.37
2018-12-21T05:51:02.129Z,79.47
2018-12-21T05:53:31.265Z,56.27
2018-12-21T05:56:00.279Z,63.00
2018-12-21T05:58:29.345Z,59.40
2018-12-21T06:00:58.432Z,69.43
2018-12-21T06:03:27.502Z,61.80
2018-12-21T06:05:56.564Z,62.43
2018-12-21T06:08:25.626Z,63.60
2018-12-21T06:10:54.693Z,65.73
2018-12-21T06:13:23.732Z,58.00
2018-12-21T06:15:52.876Z,64.13
2018-12-21T06:18:21.917Z,60.77
2018-12-21T06:20:51.050Z,59.50
2018-12-21T06:23:20.115Z,57.53
2018-12-21T06:25:49.337Z,65.93
2018-12-21T06:28:18.373Z,57.40
2018-12-21T06:30:47.419Z,172.87
2018-12-21T06:33:16.492Z,169.60
2018-12-21T06:35:45.535Z,82.87
2018-12-21T06:38:14.617Z,76.17
2018-12-21T06:40:43.651Z,68.90
2018-12-21T06:43:12.830Z,65.83
2018-12-21T06:45:41.894Z,76.67
2018-12-21T06:48:10.959Z,88.23
2018-12-21T06:50:40.005Z,138.03
2018-12-21T06:53:09.044Z,82.50
2018-12-21T06:55:38.329Z,66.97
2018-12-21T06:58:07.475Z,69.83
2018-12-21T07:00:36.558Z,69.10
2018-12-21T07:03:05.590Z,77.30
2018-12-21T07:05:34.632Z,75.73
2018-12-21T07:08:03.712Z,70.67
2018-12-21T07:10:32.746Z,72.40
2018-12-21T07:13:01.896Z,65.53
2018-12-21T07:15:30.953Z,60.03
2018-12-21T07:18:00.005Z,69.23
2018-12-21T07:20:29.150Z,62.87
2018-12-21T07:22:58.224Z,66.80
2018-12-21T07:25:27.294Z,60.30
2018-12-21T07:27:56.376Z,68.40
2018-12-21T07:30:25.426Z,67.90
2018-12-21T07:32:54.462Z,64.03
2018-12-21T07:35:23.522Z,64.47
2018-12-21T07:37:52.586Z,61.40
2018-12-21T07:40:21.640Z,74.67
2018-12-21T07:42:50.703Z,80.90
2018-12-21T07:45:19.763Z,156.17
2018-12-21T07:47:48.837Z,108.13
2018-12-21T07:50:17.960Z,72.37
2018-12-21T07:52:47.021Z,63.30
2018-12-21T07:55:16.092Z,68.20
2018-12-21T07:57:45.166Z,68.60
2018-12-21T08:00:14.207Z,68.77
2018-12-21T08:02:43.261Z,96.20
2018-12-21T08:05:12.325Z,72.63
2018-12-21T08:07:41.382Z,62.60
2018-12-21T08:10:13.458Z,62.13
2018-12-21T08:12:42.509Z,67.07
2018-12-21T08:15:11.571Z,74.00
2018-12-21T08:17:40.723Z,67.10
2018-12-21T08:20:09.821Z,65.50
2018-12-21T08:22:38.874Z,73.60
2018-12-21T08:25:07.998Z,66.93
2018-12-21T08:27:37.070Z,73.03
2018-12-21T08:30:09.218Z,70.00
2018-12-21T08:32:38.301Z,78.70
2018-12-21T08:35:07.404Z,75.70
2018-12-21T08:37:36.472Z,74.63
2018-12-21T08:40:08.153Z,78.13
2018-12-21T08:42:37.169Z,72.13
2018-12-21T08:45:08.024Z,68.87
2018-12-21T08:47:37.075Z,66.30
2018-12-21T08:50:08.010Z,61.07
2018-12-21T08:52:37.061Z,62.07
2018-12-21T08:55:06.257Z,60.93
2018-12-21T08:57:35.321Z,62.07
2018-12-21T09:00:07.735Z,67.30
2018-12-21T09:02:36.864Z,68.53
2018-12-21T09:05:06.876Z,71.93
2018-12-21T09:07:37.263Z,71.90
2018-12-21T09:10:09.180Z,72.73
2018-12-21T09:12:38.789Z,74.33
2018-12-21T09:15:11.177Z,70.17
2018-12-21T09:17:40.230Z,70.07
2018-12-21T09:20:11.137Z,71.93
2018-12-21T09:22:40.208Z,66.77
2018-12-21T09:25:09.233Z,65.90
2018-12-21T09:27:38.376Z,65.27
2018-12-21T09:30:11.367Z,69.27
2018-12-21T09:32:40.428Z,63.97
2018-12-21T09:35:09.544Z,65.70
2018-12-21T09:37:38.615Z,67.30
2018-12-21T09:40:09.438Z,69.00
2018-12-21T09:42:38.438Z,64.03
2018-12-21T09:45:07.570Z,77.97
2018-12-21T09:47:36.684Z,61.60
2018-12-21T09:50:07.421Z,70.03
2018-12-21T09:52:36.479Z,64.20
2018-12-21T09:55:06.092Z,58.83
2018-12-21T09:57:35.150Z,70.73
2018-12-21T10:00:06.627Z,73.40
2018-12-21T10:02:36.472Z,60.70
2018-12-21T10:05:09.121Z,61.60
2018-12-21T10:07:38.165Z,62.00
2018-12-21T10:10:07.829Z,59.40
2018-12-21T10:12:36.889Z,69.33
2018-12-21T10:15:07.936Z,62.70
2018-12-21T10:17:36.969Z,63.37
2018-12-21T10:20:08.287Z,54.40
2018-12-21T10:22:37.463Z,57.17
2018-12-21T10:25:06.936Z,65.27
2018-12-21T10:27:35.985Z,59.83
2018-12-21T10:30:09.157Z,269.40
2018-12-21T10:32:38.293Z,87.17
2018-12-21T10:35:07.528Z,62.30
2018-12-21T10:37:36.669Z,62.97
2018-12-21T10:40:07.331Z,50.43
2018-12-21T10:42:36.384Z,56.07
2018-12-21T10:45:06.415Z,67.17
2018-12-21T10:47:35.570Z,61.97
2018-12-21T10:50:08.309Z,61.30
2018-12-21T10:52:38.942Z,66.27
2018-12-21T10:55:08.328Z,66.77
2018-12-21T10:57:37.354Z,70.73
2018-12-21T11:00:09.373Z,65.40
2018-12-21T11:02:38.399Z,57.03
2018-12-21T11:05:07.582Z,61.03
2018-12-21T11:07:36.616Z,59.77
2018-12-21T11:10:08.629Z,59.37
2018-12-21T11:12:37.692Z,67.47
2018-12-21T11:15:07.362Z,121.50
2018-12-21T11:17:36.394Z,90.00
2018-12-21T11:20:07.053Z,66.70
2018-12-21T11:22:36.138Z,61.40
2018-12-21T11:25:09.604Z,64.40
2018-12-21T11:27:38.723Z,65.00
2018-12-21T11:30:09.396Z,66.50
2018-12-21T11:32:38.455Z,63.00
2018-12-21T11:35:07.583Z,65.37
2018-12-21T11:37:36.661Z,62.57
2018-12-21T11:40:06.312Z,66.27
2018-12-21T11:42:37.303Z,73.03
2018-12-21T11:45:08.961Z,65.00
2018-12-21T11:47:38.014Z,58.43
2018-12-21T11:50:09.804Z,60.50
2018-12-21T11:52:38.866Z,74.27
2018-12-21T11:55:07.919Z,67.33
2018-12-21T11:57:36.982Z,150.67
2018-12-21T12:00:09.310Z,138.20
2018-12-21T12:02:38.361Z,61.10
2018-12-21T12:05:07.535Z,50.50
2018-12-21T12:07:36.584Z,51.03
2018-12-21T12:10:07.522Z,70.00
2018-12-21T12:12:36.578Z,58.27
2018-12-21T12:15:07.126Z,61.40
2018-12-21T12:17:36.219Z,64.73
2018-12-21T12:20:06.391Z,66.10
2018-12-21T12:22:35.453Z,65.70
2018-12-21T12:25:05.795Z,68.53
2018-12-21T12:27:34.928Z,70.37
2018-12-21T12:30:06.961Z,74.93
2018-12-21T12:32:36.182Z,73.40
2018-12-21T12:35:06.588Z,66.57
2018-12-21T12:37:35.610Z,73.83
2018-12-21T12:40:06.175Z,71.23
2018-12-21T12:42:35.236Z,64.53
2018-12-21T12:45:06.401Z,79.53
2018-12-21T12:47:35.487Z,126.87
2018-12-21T12:50:05.660Z,110.63
2018-12-21T12:52:36.025Z,70.70
2018-12-21T12:55:06.020Z,68.40
2018-12-21T12:57:35.102Z,69.53
2018-12-21T13:00:07.717Z,65.73
2018-12-21T13:02:36.881Z,74.13
2018-12-21T13:05:07.004Z,59.60
2018-12-21T13:07:36.307Z,65.53
2018-12-21T13:10:09.091Z,90.90
2018-12-21T13:12:38.126Z,71.60
2018-12-21T13:15:08.958Z,66.33
2018-12-21T13:17:38.049Z,69.07
2018-12-21T13:20:09.791Z,69.07
2018-12-21T13:22:38.865Z,69.67
2018-12-21T13:25:11.542Z,69.00
2018-12-21T13:27:39.085Z,77.53
2018-12-21T13:30:09.063Z,83.37
2018-12-21T13:32:38.117Z,81.47
2018-12-21T13:35:07.270Z,77.43
2018-12-21T13:37:36.416Z,78.97
2018-12-21T13:40:08.946Z,75.10
2018-12-21T13:42:38.008Z,64.30
2018-12-21T13:45:08.639Z,84.83
2018-12-21T13:47:37.706Z,93.07
2018-12-21T13:50:09.877Z,86.43
2018-12-21T13:52:39.116Z,74.03
2018-12-21T13:55:08.173Z,70.43
2018-12-21T13:57:37.277Z,72.67
2018-12-21T14:00:08.642Z,73.47
2018-12-21T14:02:37.701Z,88.43
2018-12-21T14:05:06.817Z,79.70
2018-12-21T14:07:35.899Z,70.63
2018-12-21T14:10:09.739Z,78.53
2018-12-21T14:12:38.829Z,70.20
2018-12-21T14:15:08.115Z,76.67
2018-12-21T14:17:37.167Z,85.30
2018-12-21T14:20:09.402Z,74.07
2018-12-21T14:22:38.440Z,76.97
2018-12-21T14:25:07.493Z,72.13
2018-12-21T14:27:36.630Z,76.90
2018-12-21T14:32:46.085Z,77.00
2018-12-21T14:35:15.724Z,72.23
2018-12-21T14:37:45.834Z,77.30
2018-12-21T14:40:14.894Z,69.70
2018-12-21T14:42:44.181Z,73.27
2018-12-21T14:45:13.217Z,73.03
2018-12-21T14:47:42.285Z,79.03
2018-12-21T14:50:11.509Z,74.17
2018-12-21T14:52:40.561Z,74.13
2018-12-21T14:55:09.733Z,75.43
2018-12-21T14:57:38.776Z,83.20
2018-12-21T15:00:11.673Z,77.93
2018-12-21T15:02:40.772Z,75.97
2018-12-21T15:05:10.055Z,76.43
2018-12-21T15:07:39.099Z,98.57
2018-12-21T15:10:09.601Z,96.50
2018-12-21T15:12:39.006Z,82.40
2018-12-21T15:15:08.195Z,90.87
2018-12-21T15:17:37.263Z,90.67
2018-12-21T15:20:08.195Z,90.43
2018-12-21T15:22:37.323Z,85.40
2018-12-21T15:25:06.568Z,88.57
2018-12-21T15:27:35.643Z,96.37
2018-12-21T15:30:08.111Z,91.57
2018-12-21T15:32:37.153Z,100.17
2018-12-21T15:35:06.295Z,89.67
2018-12-21T15:37:35.331Z,95.73
2018-12-21T15:40:06.084Z,109.63
2018-12-21T15:42:35.234Z,94.57
2018-12-21T15:45:05.782Z,93.13
2018-12-21T15:47:34.837Z,90.80
2018-12-21T15:50:07.589Z,86.37
2018-12-21T15:52:36.654Z,91.43
2018-12-21T15:55:06.326Z,91.43
2018-12-21T15:57:35.397Z,95.23
2018-12-21T16:00:08.758Z,94.20
2018-12-21T16:02:37.899Z,103.70
2018-12-21T16:05:07.662Z,103.73
2018-12-21T16:07:36.716Z,89.97
2018-12-21T16:10:09.667Z,104.10
2018-12-21T16:12:38.738Z,91.87
2018-12-21T16:15:08.081Z,98.90
2018-12-21T16:17:37.961Z,88.07
2018-12-21T16:20:10.715Z,102.77
2018-12-21T16:22:42.435Z,98.73
2018-12-21T16:25:10.853Z,106.97
2018-12-21T16:27:40.038Z,101.70
2018-12-21T16:30:10.431Z,100.40
2018-12-21T16:32:39.647Z,116.53
2018-12-21T16:35:08.845Z,113.97
2018-12-21T16:37:37.951Z,110.50
2018-12-21T16:40:08.682Z,110.77
2018-12-21T16:42:37.806Z,106.40
2018-12-21T16:45:08.968Z,99.27
2018-12-21T16:47:38.069Z,115.90
2018-12-21T16:50:10.383Z,113.97
2018-12-21T16:52:39.446Z,112.03
2018-12-21T16:55:08.663Z,114.13
2018-12-21T16:57:39.595Z,113.80
2018-12-21T17:00:11.729Z,117.77
2018-12-21T17:02:40.864Z,103.03
2018-12-21T17:05:10.008Z,114.33
2018-12-21T17:07:39.146Z,109.67
2018-12-21T17:10:11.315Z,122.73
2018-12-21T17:12:40.375Z,116.27
2018-12-21T17:15:10.675Z,93.20
2018-12-21T17:17:39.744Z,102.07
2018-12-21T17:20:09.600Z,103.73
2018-12-21T17:22:38.683Z,107.57
2018-12-21T17:25:09.021Z,104.10
2018-12-21T17:27:39.001Z,117.20
2018-12-21T17:30:09.922Z,117.77
2018-12-21T17:32:39.242Z,103.70
2018-12-21T17:35:08.383Z,114.40
2018-12-21T17:37:37.426Z,114.83
2018-12-21T17:40:08.452Z,97.73
2018-12-21T17:42:37.483Z,98.13
2018-12-21T17:45:08.138Z,97.97
2018-12-21T17:47:37.169Z,100.57
2018-12-21T17:50:08.213Z,81.37
2018-12-21T17:52:37.251Z,86.67
2018-12-21T17:55:07.124Z,106.00
2018-12-21T17:57:36.195Z,85.23
2018-12-21T18:00:12.083Z,86.00
2018-12-21T18:02:43.027Z,87.50
2018-12-21T18:05:12.230Z,83.87
2018-12-21T18:07:41.269Z,74.87
2018-12-21T18:10:11.954Z,68.60
2018-12-21T18:12:41.003Z,71.50
2018-12-21T18:15:10.047Z,79.90
2018-12-21T18:17:39.123Z,70.00
2018-12-21T18:20:10.078Z,74.03
2018-12-21T18:22:39.202Z,73.93
2018-12-21T18:25:12.366Z,64.90
2018-12-21T18:27:41.554Z,69.23
2018-12-21T18:30:16.239Z,65.13
2018-12-21T18:32:45.374Z,63.67
2018-12-21T18:35:14.581Z,90.83
2018-12-21T18:37:47.559Z,100.90
2018-12-21T18:40:16.633Z,64.00
2018-12-21T18:42:45.686Z,66.43
2018-12-21T18:45:14.782Z,71.27
2018-12-21T18:47:43.851Z,68.40
2018-12-21T18:50:12.976Z,71.20
2018-12-21T18:52:42.108Z,63.87
2018-12-21T18:55:14.446Z,72.90
2018-12-21T18:57:43.518Z,64.90
2018-12-21T19:00:14.409Z,72.23
2018-12-21T19:02:43.609Z,74.23
2018-12-21T19:05:12.759Z,77.33
2018-12-21T19:07:41.838Z,66.70
2018-12-21T19:10:10.940Z,76.63
2018-12-21T19:12:39.995Z,71.80
2018-12-21T19:15:09.119Z,62.20
2018-12-21T19:17:39.195Z,66.83
2018-12-21T19:20:09.770Z,73.17
2018-12-21T19:22:38.834Z,73.37
2018-12-21T19:25:08.677Z,78.70
2018-12-21T19:27:37.756Z,90.60
2018-12-21T19:30:08.722Z,85.20
2018-12-21T19:32:37.983Z,75.40
2018-12-21T19:35:08.549Z,72.67
2018-12-21T19:37:37.622Z,82.30
2018-12-21T19:40:08.630Z,128.43
2018-12-21T19:42:37.762Z,82.13
2018-12-21T19:45:08.481Z,71.90
2018-12-21T19:47:37.545Z,80.10
2018-12-21T19:50:08.519Z,79.43
2018-12-21T19:52:37.569Z,66.33
2018-12-21T19:55:15.925Z,79.23
2018-12-21T19:57:45.089Z,73.60
2018-12-21T20:00:14.186Z,73.50
2018-12-21T20:02:43.250Z,62.57
2018-12-21T20:05:12.293Z,73.13
2018-12-21T20:07:41.374Z,81.50
2018-12-21T20:10:11.701Z,75.03
2018-12-21T20:12:41.664Z,75.90
2018-12-21T20:15:10.722Z,137.13
2018-12-21T20:17:39.770Z,131.40
2018-12-21T20:20:09.739Z,178.87
2018-12-21T20:22:38.812Z,111.57
2018-12-21T20:25:09.315Z,122.33
2018-12-21T20:27:38.455Z,92.27
2018-12-21T20:30:11.930Z,92.20
2018-12-21T20:32:40.970Z,89.87
2018-12-21T20:35:10.329Z,80.53
2018-12-21T20:37:39.331Z,88.87
2018-12-21T20:40:12.024Z,91.50
2018-12-21T20:42:41.071Z,83.23
2018-12-21T20:45:11.922Z,96.87
2018-12-21T20:47:41.000Z,73.60
2018-12-21T20:50:14.190Z,85.33
2018-12-21T20:52:43.248Z,81.37
2018-12-21T20:55:12.439Z,87.73
2018-12-21T20:57:44.267Z,83.10
2018-12-21T21:00:16.329Z,78.97
2018-12-21T21:02:45.374Z,83.27
2018-12-21T21:05:14.420Z,93.43
2018-12-21T21:07:43.486Z,82.73
2018-12-21T21:10:12.692Z,95.07
2018-12-21T21:12:41.746Z,82.93
2018-12-21T21:15:12.805Z,82.73
2018-12-21T21:17:41.848Z,97.20
2018-12-21T21:20:14.502Z,119.87
2018-12-21T21:22:43.621Z,137.43
2018-12-21T21:25:12.679Z,116.63
2018-12-21T21:27:41.739Z,96.10
2018-12-21T21:30:15.273Z,87.67
2018-12-21T21:32:44.334Z,89.63
2018-12-21T21:35:13.397Z,87.27
2018-12-21T21:37:42.417Z,76.60
2018-12-21T21:40:16.683Z,81.83
2018-12-21T21:42:47.189Z,78.60
2018-12-21T21:45:16.243Z,74.63
2018-12-21T21:47:45.281Z,70.63
2018-12-21T21:50:14.360Z,88.27
2018-12-21T21:52:43.439Z,76.67
2018-12-21T21:55:12.496Z,83.50
2018-12-21T21:57:41.556Z,77.67
2018-12-21T22:00:12.049Z,87.20
2018-12-21T22:02:41.069Z,86.70
2018-12-21T22:05:10.146Z,89.37
2018-12-21T22:07:39.202Z,88.57
2018-12-21T22:10:09.380Z,85.27
2018-12-21T22:12:38.438Z,82.70
2018-12-21T22:15:08.416Z,97.67
2018-12-21T22:17:37.577Z,92.67
2018-12-21T22:20:08.723Z,98.23
2018-12-21T22:22:37.847Z,90.03
2018-12-21T22:25:07.042Z,87.23
2018-12-21T22:27:36.100Z,81.60
2018-12-21T22:30:08.841Z,91.63
2018-12-21T22:32:37.909Z,91.87
2018-12-21T22:35:07.084Z,86.40
2018-12-21T22:37:36.233Z,80.17
2018-12-21T22:40:05.754Z,86.50
2018-12-21T22:42:34.829Z,101.53
2018-12-21T22:45:04.204Z,88.80
2018-12-21T22:47:33.261Z,78.23
2018-12-21T22:50:02.284Z,90.67
2018-12-21T22:52:31.379Z,81.80
2018-12-21T22:55:00.434Z,78.40
2018-12-21T22:57:29.469Z,78.97
2018-12-21T22:59:58.525Z,79.80
2018-12-21T23:02:27.562Z,81.20
2018-12-21T23:04:56.617Z,92.20
2018-12-21T23:07:25.685Z,79.53
2018-12-21T23:09:54.721Z,82.30
2018-12-21T23:12:23.779Z,88.43
2018-12-21T23:14:52.856Z,91.43
2018-12-21T23:17:21.889Z,80.60
2018-12-21T23:19:50.960Z,88.90
2018-12-21T23:22:19.985Z,79.47
2018-12-21T23:24:49.043Z,81.60
2018-12-21T23:27:18.084Z,77.90
2018-12-21T23:29:47.209Z,72.27
2018-12-21T23:32:16.294Z,81.50
2018-12-21T23:34:45.323Z,86.50
2018-12-21T23:37:14.803Z,71.67
2018-12-21T23:39:43.859Z,83.03
2018-12-21T23:42:12.908Z,85.10
2018-12-21T23:44:42.003Z,75.10
2018-12-21T23:47:11.074Z,82.60
2018-12-21T23:49:40.133Z,82.47
2018-12-21T23:52:09.284Z,88.33
2018-12-21T23:54:38.354Z,72.70
2018-12-21T23:57:07.383Z,71.63
2018-12-21T23:59:36.467Z,77.53
